createdAt,value
2023-10-31T00:01:23.190Z,1.52
2023-10-31T00:03:49.992Z,1.80
2023-10-31T00:06:16.859Z,2.13
2023-10-31T00:08:43.655Z,2.00
2023-10-31T00:11:10.439Z,2.00
2023-10-31T00:13:37.294Z,2.10
2023-10-31T00:16:04.517Z,3.50
2023-10-31T00:18:31.382Z,3.03
2023-10-31T00:20:58.218Z,3.55
2023-10-31T00:23:25.053Z,4.93
2023-10-31T00:25:51.843Z,4.78
2023-10-31T00:28:18.636Z,5.43
2023-10-31T00:30:45.458Z,5.70
2023-10-31T00:33:13.264Z,7.47
2023-10-31T00:35:40.005Z,7.05
2023-10-31T00:38:06.895Z,7.63
2023-10-31T00:40:33.800Z,7.47
2023-10-31T00:43:01.755Z,7.82
2023-10-31T00:45:28.668Z,8.05
2023-10-31T00:47:55.737Z,7.93
2023-10-31T00:50:22.608Z,8.27
2023-10-31T00:52:49.525Z,8.90
2023-10-31T00:55:16.406Z,7.20
2023-10-31T00:57:43.158Z,7.07
2023-10-31T01:00:10.726Z,6.22
2023-10-31T01:02:37.606Z,5.60
2023-10-31T01:05:04.764Z,5.25
2023-10-31T01:07:31.575Z,5.15
2023-10-31T01:09:58.448Z,4.53
2023-10-31T01:12:25.319Z,4.32
2023-10-31T01:14:52.116Z,4.28
2023-10-31T01:17:18.944Z,4.07
2023-10-31T01:19:45.800Z,3.58
2023-10-31T01:22:12.681Z,3.20
2023-10-31T01:24:39.487Z,3.63
2023-10-31T01:27:07.495Z,4.10
2023-10-31T01:29:34.303Z,4.07
2023-10-31T01:32:03.425Z,4.13
2023-10-31T01:34:34.326Z,4.97
2023-10-31T01:37:01.226Z,6.55
2023-10-31T01:39:33.843Z,6.68
2023-10-31T01:42:01.619Z,7.43
2023-10-31T01:44:34.276Z,8.32
2023-10-31T01:47:02.036Z,8.88
2023-10-31T01:49:28.944Z,8.90
2023-10-31T01:51:55.829Z,9.13
2023-10-31T01:54:22.641Z,9.20
2023-10-31T01:56:51.999Z,9.75
2023-10-31T01:59:19.152Z,8.97
2023-10-31T02:01:46.075Z,9.52
2023-10-31T02:04:12.928Z,9.27
2023-10-31T02:06:39.717Z,8.23
2023-10-31T02:09:07.234Z,7.10
2023-10-31T02:11:34.051Z,7.38
2023-10-31T02:14:02.111Z,7.55
2023-10-31T02:16:28.969Z,6.70
2023-10-31T02:18:55.837Z,7.03
2023-10-31T02:21:22.916Z,6.88
2023-10-31T02:24:09.952Z,6.68
2023-10-31T02:26:36.992Z,6.25
2023-10-31T02:29:04.214Z,5.93
2023-10-31T02:31:31.607Z,6.00
2023-10-31T02:33:58.547Z,6.80
2023-10-31T02:36:25.364Z,6.32
2023-10-31T02:38:52.184Z,7.22
2023-10-31T02:41:19.073Z,7.07
2023-10-31T02:43:46.148Z,7.70
2023-10-31T02:46:14.635Z,7.28
2023-10-31T02:48:41.486Z,7.78
2023-10-31T02:51:08.990Z,7.70
2023-10-31T02:53:37.441Z,7.50
2023-10-31T02:56:05.154Z,7.15
2023-10-31T02:58:32.057Z,6.95
2023-10-31T03:00:58.937Z,7.20
2023-10-31T03:03:25.875Z,7.13
2023-10-31T03:05:52.729Z,7.18
2023-10-31T03:08:22.546Z,7.45
2023-10-31T03:10:53.572Z,7.22
2023-10-31T03:13:20.836Z,7.30
2023-10-31T03:15:48.521Z,7.32
2023-10-31T03:18:18.146Z,6.05
2023-10-31T03:20:47.216Z,5.82
2023-10-31T03:23:14.981Z,5.65
2023-10-31T03:25:43.366Z,5.07
2023-10-31T03:28:20.499Z,4.85
2023-10-31T03:30:50.674Z,5.15
2023-10-31T03:33:17.734Z,5.28
2023-10-31T03:35:45.614Z,5.05
2023-10-31T03:38:12.701Z,5.15
2023-10-31T03:40:39.820Z,5.30
2023-10-31T03:43:06.688Z,4.78
2023-10-31T03:45:34.004Z,4.85
2023-10-31T03:48:00.813Z,4.97
2023-10-31T03:50:27.960Z,5.07
2023-10-31T03:52:54.871Z,5.00
2023-10-31T03:55:21.650Z,4.82
2023-10-31T03:57:50.017Z,5.05
2023-10-31T04:00:17.210Z,5.00
2023-10-31T04:02:44.262Z,5.45
2023-10-31T04:05:11.148Z,5.07
2023-10-31T04:07:39.307Z,5.60
2023-10-31T04:10:06.684Z,5.45
2023-10-31T04:12:35.802Z,5.50
2023-10-31T04:15:03.437Z,5.32
2023-10-31T04:17:33.416Z,4.93
2023-10-31T04:20:00.587Z,4.05
2023-10-31T04:22:27.527Z,4.00
2023-10-31T04:24:54.282Z,3.40
2023-10-31T04:27:21.072Z,2.60
2023-10-31T04:29:47.938Z,2.70
2023-10-31T04:32:14.715Z,2.17
2023-10-31T04:34:41.647Z,2.25
2023-10-31T04:37:08.540Z,2.08
2023-10-31T04:39:35.342Z,1.90
2023-10-31T04:42:02.110Z,1.60
2023-10-31T04:44:31.758Z,2.00
2023-10-31T04:46:58.749Z,1.80
2023-10-31T04:49:25.557Z,1.77
2023-10-31T04:51:52.383Z,1.85
2023-10-31T04:54:19.250Z,1.70
2023-10-31T04:56:46.033Z,2.03
2023-10-31T04:59:12.881Z,2.08
2023-10-31T05:01:39.656Z,2.20
2023-10-31T05:04:12.755Z,2.60
2023-10-31T05:06:41.039Z,2.40
2023-10-31T05:09:07.793Z,2.40
2023-10-31T05:11:34.998Z,2.25
2023-10-31T05:14:01.927Z,1.88
2023-10-31T05:16:28.837Z,1.80
2023-10-31T05:18:55.645Z,1.90
2023-10-31T05:21:22.424Z,1.85
2023-10-31T05:23:49.150Z,2.10
2023-10-31T05:26:15.972Z,2.40
2023-10-31T05:28:42.782Z,2.50
2023-10-31T05:31:09.617Z,2.92
2023-10-31T05:33:36.431Z,2.70
2023-10-31T05:36:03.434Z,2.83
2023-10-31T05:38:30.328Z,3.63
2023-10-31T05:40:57.127Z,3.95
2023-10-31T05:43:23.935Z,4.85
2023-10-31T05:45:50.695Z,4.82
2023-10-31T05:48:17.533Z,4.32
2023-10-31T05:50:47.126Z,4.82
2023-10-31T05:53:14.020Z,4.40
2023-10-31T05:55:41.255Z,3.60
2023-10-31T05:58:08.118Z,3.03
2023-10-31T06:00:36.135Z,2.72
2023-10-31T06:03:03.642Z,2.70
2023-10-31T06:05:30.993Z,2.88
2023-10-31T06:07:57.908Z,2.15
2023-10-31T06:10:24.686Z,2.05
2023-10-31T06:12:51.456Z,2.22
2023-10-31T06:15:18.615Z,2.20
2023-10-31T06:17:45.391Z,1.88
2023-10-31T06:20:12.875Z,1.90
2023-10-31T06:22:39.768Z,1.92
2023-10-31T06:25:06.812Z,1.70
2023-10-31T06:27:33.608Z,1.80
2023-10-31T06:30:11.606Z,1.50
2023-10-31T06:32:47.124Z,1.40
2023-10-31T06:35:14.087Z,1.50
2023-10-31T06:37:44.940Z,1.60
2023-10-31T06:40:14.643Z,1.60
2023-10-31T06:42:41.458Z,1.85
2023-10-31T06:45:08.600Z,1.67
2023-10-31T06:47:35.425Z,1.60
2023-10-31T06:50:02.257Z,1.50
2023-10-31T06:52:30.558Z,1.45
2023-10-31T06:54:57.369Z,1.50
2023-10-31T06:57:24.349Z,1.65
2023-10-31T06:59:51.163Z,1.60
2023-10-31T07:02:18.073Z,1.52
2023-10-31T07:04:44.968Z,1.48
2023-10-31T07:07:11.925Z,1.60
2023-10-31T07:09:38.731Z,1.35
2023-10-31T07:12:05.845Z,1.67
2023-10-31T07:14:32.609Z,1.70
2023-10-31T07:16:59.416Z,1.67
2023-10-31T07:19:26.238Z,1.70
2023-10-31T07:21:53.051Z,2.17
2023-10-31T07:24:19.917Z,2.03
2023-10-31T07:26:46.671Z,1.98
2023-10-31T07:29:14.512Z,2.20
2023-10-31T07:31:41.427Z,2.17
2023-10-31T07:34:08.394Z,2.38
2023-10-31T07:36:39.377Z,2.20
2023-10-31T07:39:06.247Z,2.53
2023-10-31T07:41:33.145Z,2.35
2023-10-31T07:43:59.991Z,2.65
2023-10-31T07:46:26.894Z,2.75
2023-10-31T07:48:53.739Z,2.80
2023-10-31T07:51:20.565Z,2.90
2023-10-31T07:53:47.964Z,3.15
2023-10-31T07:56:24.356Z,3.28
2023-10-31T07:58:51.398Z,3.17
2023-10-31T08:01:22.655Z,3.00
2023-10-31T08:03:49.663Z,3.50
2023-10-31T08:06:16.819Z,3.80
2023-10-31T08:08:47.013Z,3.30
2023-10-31T08:11:13.824Z,3.72
2023-10-31T08:13:40.973Z,3.60
2023-10-31T08:16:09.111Z,3.20
2023-10-31T08:18:36.608Z,3.92
2023-10-31T08:21:04.760Z,3.50
2023-10-31T08:23:31.687Z,3.47
2023-10-31T08:25:58.531Z,4.18
2023-10-31T08:28:25.555Z,3.53
2023-10-31T08:30:52.604Z,4.50
2023-10-31T08:33:19.548Z,4.10
2023-10-31T08:35:46.445Z,3.65
2023-10-31T08:38:21.482Z,3.70
2023-10-31T08:40:54.121Z,4.00
2023-10-31T08:43:20.973Z,3.65
2023-10-31T08:45:47.733Z,4.43
2023-10-31T08:48:16.966Z,3.92
2023-10-31T08:50:43.930Z,4.43
2023-10-31T08:53:11.362Z,4.47
2023-10-31T08:55:38.523Z,4.13
2023-10-31T08:58:05.333Z,4.65
2023-10-31T09:00:32.189Z,5.13
2023-10-31T09:02:59.073Z,4.72
2023-10-31T09:05:27.029Z,5.22
2023-10-31T09:07:55.602Z,5.28
2023-10-31T09:10:23.594Z,5.15
2023-10-31T09:12:50.437Z,5.80
2023-10-31T09:15:17.286Z,5.93
2023-10-31T09:17:44.315Z,5.53
2023-10-31T09:20:12.376Z,5.32
2023-10-31T09:22:39.317Z,6.00
2023-10-31T09:25:06.356Z,5.55
2023-10-31T09:27:35.110Z,5.93
2023-10-31T09:30:01.894Z,5.40
2023-10-31T09:32:28.820Z,5.25
2023-10-31T09:34:55.821Z,5.47
2023-10-31T09:37:22.676Z,5.70
2023-10-31T09:39:49.441Z,5.90
2023-10-31T09:42:16.483Z,5.38
2023-10-31T09:44:43.381Z,6.05
2023-10-31T09:47:10.215Z,5.88
2023-10-31T09:49:37.412Z,5.70
2023-10-31T09:52:05.323Z,5.47
2023-10-31T09:54:32.297Z,6.03
2023-10-31T09:56:59.094Z,5.85
2023-10-31T09:59:25.994Z,6.07
2023-10-31T10:01:53.004Z,6.40
2023-10-31T10:04:20.407Z,6.57
2023-10-31T10:07:00.976Z,7.03
2023-10-31T10:09:28.876Z,7.35
2023-10-31T10:11:56.790Z,6.55
2023-10-31T10:14:29.439Z,6.90
2023-10-31T10:16:56.698Z,6.70
2023-10-31T10:19:24.208Z,6.40
2023-10-31T10:21:57.503Z,7.60
2023-10-31T10:24:25.723Z,6.60
2023-10-31T10:26:53.264Z,6.60
2023-10-31T10:29:20.262Z,6.63
2023-10-31T10:31:47.188Z,6.53
2023-10-31T10:34:16.116Z,5.80
2023-10-31T10:36:50.329Z,5.60
2023-10-31T10:39:23.830Z,4.75
2023-10-31T10:41:59.322Z,5.07
2023-10-31T10:44:35.554Z,4.78
2023-10-31T10:47:07.285Z,4.28
2023-10-31T10:49:37.437Z,5.00
2023-10-31T10:54:45.630Z,3.55
2023-10-31T10:57:29.618Z,3.80
2023-10-31T10:59:59.391Z,3.53
2023-10-31T11:02:28.309Z,2.70
2023-10-31T11:04:56.631Z,3.05
2023-10-31T11:07:25.617Z,2.80
2023-10-31T11:09:52.799Z,2.85
2023-10-31T11:12:21.667Z,3.67
2023-10-31T11:14:48.569Z,4.97
2023-10-31T11:17:27.490Z,5.10
2023-10-31T11:19:56.621Z,5.85
2023-10-31T11:22:23.461Z,6.35
2023-10-31T11:24:54.506Z,6.43
2023-10-31T11:27:21.387Z,6.00
2023-10-31T11:29:49.414Z,6.35
2023-10-31T11:32:16.448Z,5.93
2023-10-31T11:34:44.684Z,6.03
2023-10-31T11:37:28.109Z,6.82
2023-10-31T11:40:18.184Z,8.48
2023-10-31T11:42:58.015Z,10.02
2023-10-31T11:45:43.090Z,10.65
2023-10-31T11:48:11.048Z,13.75
2023-10-31T11:50:39.156Z,12.50
2023-10-31T11:53:07.128Z,12.18
2023-10-31T11:55:44.832Z,12.93
2023-10-31T11:58:26.901Z,12.82
2023-10-31T12:01:03.272Z,13.95
2023-10-31T12:03:41.136Z,15.05
2023-10-31T12:06:09.573Z,15.38
2023-10-31T12:08:40.828Z,16.02
2023-10-31T12:11:18.810Z,16.10
2023-10-31T12:13:59.667Z,15.23
2023-10-31T12:16:31.622Z,17.05
2023-10-31T12:19:03.695Z,16.02
2023-10-31T12:21:49.865Z,17.25
2023-10-31T12:24:17.930Z,16.27
2023-10-31T12:26:48.432Z,16.13
2023-10-31T12:29:16.837Z,16.85
2023-10-31T12:31:53.388Z,16.92
2023-10-31T12:34:22.652Z,17.30
2023-10-31T12:36:52.274Z,17.08
2023-10-31T12:39:23.817Z,17.27
2023-10-31T12:41:51.217Z,16.08
2023-10-31T12:44:36.865Z,15.57
2023-10-31T12:47:08.208Z,15.57
2023-10-31T12:49:35.025Z,14.95
2023-10-31T12:52:05.944Z,15.35
2023-10-31T12:54:38.778Z,15.27
2023-10-31T12:57:10.863Z,15.43
2023-10-31T12:59:39.571Z,15.55
2023-10-31T13:02:07.785Z,14.60
2023-10-31T13:04:35.449Z,14.95
2023-10-31T13:07:08.458Z,14.40
2023-10-31T13:09:39.632Z,13.85
2023-10-31T13:12:08.192Z,13.77
2023-10-31T13:14:36.108Z,13.88
2023-10-31T13:17:04.492Z,13.20
2023-10-31T13:19:31.724Z,12.88
2023-10-31T13:21:58.534Z,13.52
2023-10-31T13:24:25.511Z,12.85
2023-10-31T13:26:53.310Z,13.50
2023-10-31T13:29:21.511Z,14.13
2023-10-31T13:31:48.369Z,12.73
2023-10-31T13:34:15.217Z,13.43
2023-10-31T13:36:42.335Z,12.68
2023-10-31T13:39:09.915Z,12.40
2023-10-31T13:41:37.365Z,11.50
2023-10-31T13:44:04.873Z,12.25
2023-10-31T13:46:31.928Z,12.57
2023-10-31T13:48:58.961Z,12.10
2023-10-31T13:51:25.796Z,11.73
2023-10-31T13:53:52.617Z,11.50
2023-10-31T13:56:19.466Z,11.90
2023-10-31T13:58:46.301Z,11.98
2023-10-31T14:01:13.306Z,11.82
2023-10-31T14:03:40.276Z,11.90
2023-10-31T14:06:07.490Z,12.25
2023-10-31T14:08:34.363Z,12.25
2023-10-31T14:11:01.759Z,12.85
2023-10-31T14:13:28.985Z,13.93
2023-10-31T14:15:55.878Z,13.15
2023-10-31T14:18:22.709Z,13.90
2023-10-31T14:20:49.508Z,13.73
2023-10-31T14:23:16.306Z,14.65
2023-10-31T14:25:44.399Z,15.23
2023-10-31T14:28:11.412Z,14.90
2023-10-31T14:30:38.270Z,15.13
2023-10-31T14:33:05.512Z,14.43
2023-10-31T14:35:32.379Z,14.38
2023-10-31T14:37:59.527Z,13.98
2023-10-31T14:40:26.331Z,13.68
2023-10-31T14:42:53.163Z,12.95
2023-10-31T14:45:19.915Z,12.93
2023-10-31T14:47:46.715Z,12.85
2023-10-31T14:50:13.594Z,13.85
2023-10-31T14:52:42.455Z,13.20
2023-10-31T14:55:10.221Z,12.60
2023-10-31T14:57:37.300Z,12.23
2023-10-31T15:00:04.894Z,11.43
2023-10-31T15:02:31.905Z,10.57
2023-10-31T15:04:58.694Z,10.52
2023-10-31T15:07:25.448Z,9.85
2023-10-31T15:09:52.367Z,9.82
2023-10-31T15:12:19.192Z,10.57
2023-10-31T15:14:45.990Z,10.30
2023-10-31T15:17:13.030Z,11.48
2023-10-31T15:19:39.871Z,11.05
2023-10-31T15:22:06.671Z,11.32
2023-10-31T15:24:34.901Z,10.38
2023-10-31T15:27:01.721Z,11.02
2023-10-31T15:29:28.853Z,11.00
2023-10-31T15:31:56.616Z,11.20
2023-10-31T15:34:23.767Z,11.20
2023-10-31T15:36:50.611Z,12.00
2023-10-31T15:39:18.067Z,10.48
2023-10-31T15:41:48.056Z,10.10
2023-10-31T15:44:15.095Z,10.93
2023-10-31T15:46:42.013Z,10.95
2023-10-31T15:49:08.804Z,10.70
2023-10-31T15:51:35.614Z,10.40
2023-10-31T15:54:03.947Z,10.73
2023-10-31T15:56:32.050Z,10.05
2023-10-31T15:58:58.844Z,9.73
2023-10-31T16:01:25.597Z,9.60
2023-10-31T16:03:52.600Z,9.60
2023-10-31T16:06:19.552Z,9.75
2023-10-31T16:08:46.444Z,8.90
2023-10-31T16:11:13.868Z,8.60
2023-10-31T16:13:41.951Z,9.45
2023-10-31T16:16:12.111Z,8.27
2023-10-31T16:18:39.218Z,8.65
2023-10-31T16:21:08.240Z,8.13
2023-10-31T16:23:35.499Z,8.95
2023-10-31T16:26:02.579Z,7.68
2023-10-31T16:28:32.424Z,7.07
2023-10-31T16:30:59.313Z,6.72
2023-10-31T16:33:27.679Z,7.00
2023-10-31T16:35:54.507Z,6.53
2023-10-31T16:38:22.145Z,5.97
2023-10-31T16:40:49.139Z,6.57
2023-10-31T16:43:16.896Z,6.00
2023-10-31T16:45:45.718Z,6.38
2023-10-31T16:48:12.652Z,5.93
2023-10-31T16:50:39.642Z,5.95
2023-10-31T16:53:06.802Z,6.15
2023-10-31T16:55:34.266Z,7.18
2023-10-31T16:58:02.881Z,6.72
2023-10-31T17:00:29.846Z,6.90
2023-10-31T17:02:56.843Z,6.82
2023-10-31T17:05:24.877Z,7.05
2023-10-31T17:07:53.886Z,7.57
2023-10-31T17:10:20.859Z,7.28
2023-10-31T17:12:47.727Z,7.35
2023-10-31T17:15:14.553Z,7.80
2023-10-31T17:17:41.479Z,7.80
2023-10-31T17:20:08.857Z,7.68
2023-10-31T17:22:39.292Z,8.52
2023-10-31T17:25:07.181Z,8.05
2023-10-31T17:27:34.096Z,8.95
2023-10-31T17:30:01.899Z,9.23
2023-10-31T17:32:28.903Z,9.25
2023-10-31T17:34:55.750Z,9.63
2023-10-31T17:37:22.540Z,9.65
2023-10-31T17:39:49.374Z,9.50
2023-10-31T17:42:16.456Z,9.30
2023-10-31T17:44:43.737Z,9.85
2023-10-31T17:47:10.785Z,9.68
2023-10-31T17:49:37.609Z,9.55
2023-10-31T17:52:06.229Z,9.40
2023-10-31T17:54:33.083Z,10.07
2023-10-31T17:57:02.213Z,9.75
2023-10-31T17:59:29.638Z,11.90
2023-10-31T18:01:56.668Z,13.50
2023-10-31T18:04:23.673Z,11.65
2023-10-31T18:06:50.609Z,9.98
2023-10-31T18:09:17.781Z,11.02
2023-10-31T18:11:44.809Z,10.90
2023-10-31T18:14:11.664Z,11.80
2023-10-31T18:16:38.570Z,11.13
2023-10-31T18:19:06.037Z,11.40
2023-10-31T18:21:32.907Z,10.93
2023-10-31T18:23:59.764Z,10.15
2023-10-31T18:26:26.608Z,10.75
2023-10-31T18:28:53.447Z,10.07
2023-10-31T18:31:20.413Z,11.93
2023-10-31T18:33:47.275Z,11.43
2023-10-31T18:36:21.333Z,11.50
2023-10-31T18:38:54.120Z,11.65
2023-10-31T18:41:20.959Z,10.98
2023-10-31T18:44:05.496Z,11.50
2023-10-31T18:46:34.542Z,12.43
2023-10-31T18:49:01.444Z,11.30
2023-10-31T18:51:28.311Z,20.25
2023-10-31T18:53:55.275Z,18.20
2023-10-31T18:56:22.187Z,15.75
2023-10-31T18:58:57.159Z,18.30
2023-10-31T19:01:29.281Z,15.40
2023-10-31T19:03:58.191Z,14.45
2023-10-31T19:06:25.471Z,13.40
2023-10-31T19:08:52.271Z,12.25
2023-10-31T19:11:21.934Z,12.20
2023-10-31T19:13:48.740Z,11.73
2023-10-31T19:16:15.532Z,12.10
2023-10-31T19:18:42.376Z,11.88
2023-10-31T19:21:09.164Z,11.30
2023-10-31T19:23:36.021Z,12.65
2023-10-31T19:26:03.324Z,11.98
2023-10-31T19:28:30.174Z,11.77
2023-10-31T19:30:57.015Z,12.15
2023-10-31T19:33:23.870Z,12.13
2023-10-31T19:35:50.685Z,10.90
2023-10-31T19:38:18.072Z,12.02
2023-10-31T19:40:45.126Z,11.85
2023-10-31T19:43:12.907Z,11.02
2023-10-31T19:45:43.754Z,11.15
2023-10-31T19:48:12.326Z,10.88
2023-10-31T19:50:40.447Z,11.50
2023-10-31T19:53:07.330Z,11.00
2023-10-31T19:55:34.136Z,11.00
2023-10-31T19:58:01.383Z,11.25
2023-10-31T20:00:29.639Z,10.68
2023-10-31T20:02:56.687Z,11.07
2023-10-31T20:05:23.600Z,10.82
2023-10-31T20:07:50.465Z,9.98
2023-10-31T20:10:17.345Z,10.52
2023-10-31T20:12:44.187Z,10.50
2023-10-31T20:15:11.024Z,11.30
2023-10-31T20:17:38.555Z,12.10
2023-10-31T20:20:07.675Z,12.63
2023-10-31T20:22:34.691Z,13.10
2023-10-31T20:25:02.651Z,12.00
2023-10-31T20:27:29.522Z,12.20
2023-10-31T20:29:56.348Z,10.23
2023-10-31T20:32:23.225Z,10.43
2023-10-31T20:34:50.016Z,10.88
2023-10-31T20:37:16.800Z,10.95
2023-10-31T20:39:44.306Z,12.40
2023-10-31T20:42:11.328Z,11.32
2023-10-31T20:44:38.370Z,11.75
2023-10-31T20:47:05.781Z,11.60
2023-10-31T20:49:32.543Z,11.90
2023-10-31T20:51:59.321Z,11.70
2023-10-31T20:54:26.443Z,11.93
2023-10-31T20:56:57.433Z,12.45
2023-10-31T20:59:24.435Z,11.85
2023-10-31T21:01:51.350Z,12.80
2023-10-31T21:04:18.234Z,13.02
2023-10-31T21:06:45.119Z,12.45
2023-10-31T21:09:11.972Z,12.30
2023-10-31T21:11:38.857Z,13.00
2023-10-31T21:14:05.887Z,11.68
2023-10-31T21:16:32.870Z,13.63
2023-10-31T21:18:59.723Z,12.48
2023-10-31T21:21:26.601Z,11.32
2023-10-31T21:23:54.233Z,8.95
2023-10-31T21:26:21.845Z,8.02
2023-10-31T21:28:48.770Z,6.22
2023-10-31T21:31:15.704Z,4.85
2023-10-31T21:33:45.477Z,4.57
2023-10-31T21:36:12.585Z,4.97
2023-10-31T21:38:39.492Z,5.20
2023-10-31T21:41:06.759Z,5.50
2023-10-31T21:43:35.082Z,5.30
2023-10-31T21:46:01.909Z,6.03
2023-10-31T21:48:28.810Z,7.35
2023-10-31T21:50:57.444Z,7.13
2023-10-31T21:53:26.196Z,7.13
2023-10-31T21:55:53.146Z,7.60
2023-10-31T21:58:19.911Z,7.35
2023-10-31T22:00:46.777Z,9.43
2023-10-31T22:03:13.866Z,9.40
2023-10-31T22:05:40.775Z,9.60
2023-10-31T22:08:09.117Z,11.00
2023-10-31T22:10:39.041Z,12.38
2023-10-31T22:13:06.069Z,13.02
2023-10-31T22:15:32.922Z,13.05
2023-10-31T22:17:59.793Z,14.40
2023-10-31T22:20:26.594Z,13.88
2023-10-31T22:22:53.461Z,15.13
2023-10-31T22:25:20.220Z,13.27
2023-10-31T22:27:46.973Z,12.20
2023-10-31T22:30:14.320Z,11.55
2023-10-31T22:32:41.267Z,11.32
2023-10-31T22:35:08.527Z,11.80
2023-10-31T22:37:36.421Z,11.48
2023-10-31T22:40:07.932Z,10.13
2023-10-31T22:42:35.795Z,10.75
2023-10-31T22:45:02.819Z,11.00
2023-10-31T22:47:29.904Z,11.57
2023-10-31T22:49:57.257Z,10.82
2023-10-31T22:52:24.129Z,10.45
2023-10-31T22:54:50.920Z,10.25
2023-10-31T22:57:17.682Z,9.70
2023-10-31T22:59:44.646Z,9.05
2023-10-31T23:02:11.607Z,9.13
2023-10-31T23:04:42.277Z,8.63
2023-10-31T23:07:09.893Z,8.95
2023-10-31T23:09:36.711Z,8.73
2023-10-31T23:12:03.851Z,8.40
2023-10-31T23:14:31.847Z,9.13
2023-10-31T23:16:58.649Z,8.80
2023-10-31T23:19:25.404Z,8.00
2023-10-31T23:21:52.246Z,8.48
2023-10-31T23:24:19.181Z,7.88
2023-10-31T23:26:46.009Z,7.82
2023-10-31T23:29:13.002Z,7.43
2023-10-31T23:31:39.974Z,7.78
2023-10-31T23:34:06.902Z,8.52
2023-10-31T23:36:33.684Z,7.30
2023-10-31T23:39:00.560Z,7.78
2023-10-31T23:41:27.651Z,7.80
2023-10-31T23:43:54.461Z,7.70
2023-10-31T23:46:21.249Z,7.70
2023-10-31T23:48:48.068Z,7.20
2023-10-31T23:51:24.926Z,7.18
2023-10-31T23:53:52.909Z,7.18
2023-10-31T23:56:19.925Z,6.65
2023-10-31T23:58:46.906Z,6.63
